Long Beach, CA (90815)

4:48 AM PST on December 29, 2014 (GMT -0800)
East Long Beach (ke6jdc wthr-net) | Change Station
CLOSE
Current Station
Personal Weather Station
Location: Long Beach, CA
Elevation: 45 ft
Nearby Weather Stations

Elev 45 ft 33.79 °N, 118.11 °W | Updated 2 minutes ago

Clear
Clear
39.0 °F
Feels Like 39 °F
N
1.0
Wind Variable Wind from WSW
Gusts 1.0 mph

Today
High -- | Low -- °F
--% Chance of Precip.
Yesterday
High -- | Low -- °F
Precip. -- in
6:56 AM 4:52 PM
First Quarter, 58% visible
Pressure 30.14 in
Visibility 9.0 miles
Clouds Clear
Windchill 39 °F
Dew Point 35 °F
Humidity 84%
Rainfall 0.00 in
Snow Depth Not available.
UV 0 out of 12
Pollen 7.30 out of 12
Air Quality Not available.
Flu Activity Not available.
METAR KLGB 291153Z 00000KT 9SM CLR 07/03 A3013 RMK AO2 SLP204 T00670028 10100 20061 58006

More Conditions Fewer Conditions

Pressure 30.14 in
Visibility 9.0 miles
Clouds Clear
Windchill 39 °F
Dew Point 35 °F
Humidity 84%
Rainfall 0.00 in
Snow Depth Not available.
UV 0 out of 12
Pollen 7.30 out of 12
Air Quality Not available.
Flu Activity Not available.
METAR KLGB 291153Z 00000KT 9SM CLR 07/03 A3013 RMK AO2 SLP204 T00670028 10100 20061 58006

More Conditions Fewer Conditions

10-Day Weather Forecast

Almanac

Astronomy

Dec. 29, 2014 Rise Set
Actual Time
Civil Twilight
Nautical Twilight
Astronomical Twilight
Moon
Length of Visible Light
Length of Day
Tomorrow will be .
, % of the Moon is Illuminated

Today's Extremes

State Highs State Lows

Community

WunderPhotos

Upload Photos

1,781,574 photos uploaded!

WunderBlogs® & News

Nearby

Air Quality

  Air Quality AQ Index Pollutant
Not available.

Snow Depth

Station Depth Elevation

Earthquake Activity

City Distance Mag. Time & Date
Minimum magnitude displayed is 2.5.

Coastal Water Temperatures

Place Temperature

Nearby Weather Stations